Forside
METAR-TAF:

METAR-TAF

Lufthavne :

Flughafen Graz-Thalerhof

Graz, Østrig

Breddekreds: 47-00N, længdekreds: 015-26E, højde: 340 m

Aktuelle vejr

Denne rapport blev lavet for 32 minutter siden, kl. 19:50 UTC
Vind 4 kt fra vest, varierende mellem sydvest og vestnordvest
Temperatur 21°C
Fugtighed 88%
Tryk 1017 hPa
Sigt 10 km eller mere
Nogle få skyer i en højde af 1800 ft
Spredte skyer i en højde af 7000 ft
let regnbyger,

METAR: LOWG 221950Z 26004KT 220V290 9999 -SHRA FEW018 SCT070 21/19 Q1017 NOSIG

Tid: 22:22 (20:22 UTC)

Vejrudsigter

Denne rapport blev lavet for 41 minutter siden, kl. 19:41 UTC
Foreløbig gælder fra 22 på 19 UTC til 23 på 18 UTC
Vind 5 kt fra nordnordvest
Sigt 10 km eller mere
Nogle få skyer i en højde af 5000 ft
Midlertidig
fra 22 på 19 UTC til 22 på 21 UTC
let regnbyger
Midlertidig
fra 23 på 16 UTC til 23 på 18 UTC
regnbyger,

TAF: LOWG 221941Z 2219/2318 34005KT 9999 FEW050 TX28/2312Z TN18/2304Z TEMPO 2219/2221 -SHRA TEMPO 2316/2318 SHRA

Vejrobservationer og prognoser fra mere end 4000 lufthavne (METAR og TAF).

De gule og røde prikker repræsenterer de meteorologiske stationer.

Flyt musen over at se navnet på stationen.

Så klik over at se vejr observationer og prognoser.

At skifte det kort: Klik på de grønne knapper med et sort kors for at zoome ind; på den grønne knap med en bindestreg for at zoome ud; eller på de grønne pile for tilstødende kort.


METAR-TAF: